Time;durP1;ratioP1;P1;durP2;ratioP2;P2;SDS_P1;SDS_P2;PMS_P1;PMS_P2;Temp;Humidity;BMP_temperature;BMP_pressure;BME280_temperature;BME280_humidity;BME280_pressure;Samples;Min_cycle;Max_cycle;Signal;HPM_P1;HPM_P2
2023/07/16 00:02:03;;;;;;;3.10;2.80;;;;;;;;;;5137271;27;20785;-67
2023/07/16 00:04:31;;;;;;;3.10;2.70;;;;;;;;;;5136861;27;20443;-67
2023/07/16 00:06:58;;;;;;;3.33;2.40;;;;;;;;;;5137619;27;20452;-68
2023/07/16 00:09:26;;;;;;;3.53;2.70;;;;;;;;;;5137110;27;20435;-67
2023/07/16 00:11:53;;;;;;;4.67;3.13;;;;;;;;;;5136760;27;20445;-67
2023/07/16 00:14:20;;;;;;;8.23;2.67;;;;;;;;;;5136848;27;20481;-67
2023/07/16 00:16:47;;;;;;;6.03;2.33;;;;;;;;;;5136674;27;20439;-67
2023/07/16 00:19:16;;;;;;;2.90;2.63;;;;;;;;;;5136459;27;20952;-67
2023/07/16 00:21:43;;;;;;;8.63;2.87;;;;;;;;;;5136803;27;20444;-68
2023/07/16 00:24:10;;;;;;;4.27;2.83;;;;;;;;;;5136711;27;20456;-67
2023/07/16 00:26:37;;;;;;;4.17;2.77;;;;;;;;;;5136665;27;20445;-67
2023/07/16 00:29:04;;;;;;;4.83;2.73;;;;;;;;;;5136770;27;20459;-68
2023/07/16 00:31:32;;;;;;;3.23;2.93;;;;;;;;;;5136614;27;20556;-67
2023/07/16 00:33:59;;;;;;;2.67;2.47;;;;;;;;;;5136130;27;20478;-67
2023/07/16 00:36:28;;;;;;;3.90;2.77;;;;;;;;;;5136289;27;20440;-68
2023/07/16 00:38:55;;;;;;;4.90;2.53;;;;;;;;;;5136381;27;20441;-67
2023/07/16 00:41:22;;;;;;;3.47;3.03;;;;;;;;;;5136159;27;20476;-67
2023/07/16 00:43:49;;;;;;;5.53;2.63;;;;;;;;;;5135996;27;20445;-67
2023/07/16 00:46:17;;;;;;;7.17;2.90;;;;;;;;;;5136032;27;20489;-67
2023/07/16 00:48:44;;;;;;;3.00;2.70;;;;;;;;;;5136206;27;20798;-68
2023/07/16 00:51:11;;;;;;;6.93;2.67;;;;;;;;;;5135118;27;20452;-66
2023/07/16 00:53:40;;;;;;;3.50;3.20;;;;;;;;;;5136055;27;20477;-66
2023/07/16 00:56:08;;;;;;;5.43;3.33;;;;;;;;;;5135806;27;20447;-68
2023/07/16 00:58:35;;;;;;;3.77;3.27;;;;;;;;;;5135788;27;20459;-67
2023/07/16 01:01:03;;;;;;;5.70;3.00;;;;;;;;;;5136265;27;20426;-67
2023/07/16 01:03:30;;;;;;;2.97;2.67;;;;;;;;;;5135910;27;20809;-67
2023/07/16 01:06:02;;;;;;;6.20;3.17;;;;;;;;;;5135968;27;20441;-67
2023/07/16 01:08:32;;;;;;;3.27;2.93;;;;;;;;;;5136225;27;20428;-68
2023/07/16 01:11:01;;;;;;;4.93;3.00;;;;;;;;;;5135473;27;20921;-67
2023/07/16 01:13:29;;;;;;;3.23;2.93;;;;;;;;;;5135772;27;20495;-68
2023/07/16 01:15:56;;;;;;;4.10;3.20;;;;;;;;;;5135990;27;20764;-67
2023/07/16 01:18:23;;;;;;;6.70;3.30;;;;;;;;;;5136062;27;20442;-67
2023/07/16 01:20:50;;;;;;;5.63;3.10;;;;;;;;;;5135899;27;20449;-66
2023/07/16 01:23:28;;;;;;;5.77;3.87;;;;;;;;;;5135537;27;20448;-67
2023/07/16 01:26:06;;;;;;;4.33;3.30;;;;;;;;;;5135879;27;20438;-67
2023/07/16 01:28:53;;;;;;;4.23;3.10;;;;;;;;;;5135321;27;20446;-67
2023/07/16 01:31:22;;;;;;;6.33;4.17;;;;;;;;;;5135197;27;20428;-66
2023/07/16 01:33:50;;;;;;;3.70;3.40;;;;;;;;;;5135554;27;20480;-66
2023/07/16 01:36:18;;;;;;;7.40;4.00;;;;;;;;;;5135421;27;20442;-66
2023/07/16 01:38:45;;;;;;;4.70;3.40;;;;;;;;;;5135284;27;20440;-66
2023/07/16 01:41:12;;;;;;;5.47;3.03;;;;;;;;;;5135328;27;20531;-66
2023/07/16 01:43:40;;;;;;;5.60;3.10;;;;;;;;;;5134824;27;20441;-66
2023/07/16 01:46:07;;;;;;;3.47;3.17;;;;;;;;;;5135178;27;20442;-67
2023/07/16 01:48:37;;;;;;;5.70;4.07;;;;;;;;;;5134776;27;20436;-67
2023/07/16 01:51:04;;;;;;;3.90;3.20;;;;;;;;;;5135071;27;20448;-67
2023/07/16 01:53:32;;;;;;;6.13;3.40;;;;;;;;;;5135412;27;20579;-67
2023/07/16 01:55:59;;;;;;;6.73;3.57;;;;;;;;;;5134671;27;20995;-66
2023/07/16 01:58:26;;;;;;;3.93;3.50;;;;;;;;;;5134727;27;20896;-68
2023/07/16 02:00:54;;;;;;;4.40;3.23;;;;;;;;;;5134551;27;20524;-66
2023/07/16 02:03:21;;;;;;;4.40;3.30;;;;;;;;;;5134759;27;20475;-66
2023/07/16 02:05:49;;;;;;;5.30;3.77;;;;;;;;;;5134429;27;20483;-66
2023/07/16 02:08:18;;;;;;;5.10;4.00;;;;;;;;;;5134796;27;20445;-66
2023/07/16 02:10:45;;;;;;;3.80;3.47;;;;;;;;;;5134637;27;20443;-66
2023/07/16 02:13:12;;;;;;;7.33;3.53;;;;;;;;;;5134701;27;20444;-66
2023/07/16 02:15:39;;;;;;;5.77;4.17;;;;;;;;;;5134488;27;20571;-66
2023/07/16 02:18:06;;;;;;;3.47;3.10;;;;;;;;;;5134353;27;20447;-66
2023/07/16 02:20:33;;;;;;;5.73;3.37;;;;;;;;;;5134210;27;20440;-66
2023/07/16 02:23:02;;;;;;;7.20;4.50;;;;;;;;;;5134217;27;20440;-66
2023/07/16 02:25:29;;;;;;;10.43;4.10;;;;;;;;;;5134401;27;20456;-66
2023/07/16 02:27:56;;;;;;;5.90;4.10;;;;;;;;;;5134118;27;20451;-67
2023/07/16 02:30:23;;;;;;;5.27;3.80;;;;;;;;;;5134047;27;20439;-66
2023/07/16 02:32:51;;;;;;;7.17;4.23;;;;;;;;;;5134029;27;20482;-66
2023/07/16 02:35:18;;;;;;;6.00;4.50;;;;;;;;;;5134445;27;20814;-66
2023/07/16 02:37:46;;;;;;;5.70;3.97;;;;;;;;;;5134580;27;20443;-66
2023/07/16 02:40:14;;;;;;;6.33;4.23;;;;;;;;;;5134456;27;20443;-66
2023/07/16 02:42:41;;;;;;;8.53;4.10;;;;;;;;;;5134282;27;20455;-66
2023/07/16 02:45:09;;;;;;;5.63;4.87;;;;;;;;;;5134194;27;20447;-66
2023/07/16 02:47:36;;;;;;;6.23;5.10;;;;;;;;;;5135043;27;20437;-66
2023/07/16 02:50:04;;;;;;;7.00;4.70;;;;;;;;;;5134185;27;20445;-66
2023/07/16 02:52:31;;;;;;;12.10;5.13;;;;;;;;;;5134359;27;20451;-67
2023/07/16 02:54:58;;;;;;;10.20;5.63;;;;;;;;;;5134073;27;20482;-66
2023/07/16 02:57:26;;;;;;;5.53;5.03;;;;;;;;;;5134309;27;20444;-66
2023/07/16 02:59:54;;;;;;;6.43;4.37;;;;;;;;;;5134346;27;20514;-67
2023/07/16 03:02:21;;;;;;;6.70;4.80;;;;;;;;;;5134114;27;20444;-67
2023/07/16 03:04:48;;;;;;;8.73;4.93;;;;;;;;;;5134058;27;20741;-67
2023/07/16 03:07:15;;;;;;;10.30;4.80;;;;;;;;;;5134394;27;20463;-67
2023/07/16 03:09:42;;;;;;;7.60;5.07;;;;;;;;;;5134415;27;20535;-66
2023/07/16 03:12:10;;;;;;;7.80;5.93;;;;;;;;;;5133664;27;20440;-66
2023/07/16 03:14:38;;;;;;;8.80;6.33;;;;;;;;;;5135203;27;20524;-66
2023/07/16 03:17:06;;;;;;;7.67;4.90;;;;;;;;;;5137769;27;20438;-66
2023/07/16 03:19:34;;;;;;;7.60;5.20;;;;;;;;;;5138235;27;20797;-67
2023/07/16 03:22:02;;;;;;;5.80;4.80;;;;;;;;;;5137628;27;20451;-66
2023/07/16 03:24:29;;;;;;;8.90;5.10;;;;;;;;;;5137895;27;20452;-66
2023/07/16 03:26:57;;;;;;;6.40;5.20;;;;;;;;;;5137441;27;20450;-66
2023/07/16 03:29:24;;;;;;;7.00;5.70;;;;;;;;;;5137823;27;20439;-66
2023/07/16 03:31:52;;;;;;;6.00;5.40;;;;;;;;;;5137349;27;20441;-66
2023/07/16 03:34:19;;;;;;;6.40;5.37;;;;;;;;;;5137303;27;20475;-66
2023/07/16 03:36:46;;;;;;;7.07;5.60;;;;;;;;;;5137280;27;20445;-65
2023/07/16 03:39:14;;;;;;;7.50;6.20;;;;;;;;;;5137312;27;20455;-66
2023/07/16 03:41:41;;;;;;;8.30;7.47;;;;;;;;;;5137558;27;20803;-66
2023/07/16 03:44:08;;;;;;;6.70;6.00;;;;;;;;;;5137242;27;20457;-66
2023/07/16 03:46:35;;;;;;;5.90;5.37;;;;;;;;;;5137605;27;20436;-67
2023/07/16 03:49:04;;;;;;;7.10;6.00;;;;;;;;;;5137638;27;20989;-66
2023/07/16 03:51:31;;;;;;;7.33;5.57;;;;;;;;;;5136068;27;20447;-67
2023/07/16 03:53:58;;;;;;;6.40;5.33;;;;;;;;;;5135944;27;20446;-67
2023/07/16 03:56:26;;;;;;;6.20;5.13;;;;;;;;;;5135822;27;20477;-67
2023/07/16 03:58:53;;;;;;;6.83;6.07;;;;;;;;;;5135633;27;20485;-67
2023/07/16 04:01:20;;;;;;;5.50;4.90;;;;;;;;;;5136368;27;20436;-67
2023/07/16 04:03:47;;;;;;;8.70;6.03;;;;;;;;;;5135960;27;20475;-67
2023/07/16 04:06:16;;;;;;;6.40;4.10;;;;;;;;;;5136402;27;20436;-67
2023/07/16 04:08:43;;;;;;;5.20;4.30;;;;;;;;;;5136418;27;20520;-67
2023/07/16 04:11:10;;;;;;;9.13;4.63;;;;;;;;;;5136838;27;20440;-66
2023/07/16 04:13:37;;;;;;;7.90;4.47;;;;;;;;;;5136824;27;20531;-66
2023/07/16 04:16:05;;;;;;;4.23;3.83;;;;;;;;;;5136610;27;20473;-67
2023/07/16 04:18:32;;;;;;;5.63;3.90;;;;;;;;;;5136398;27;20451;-67
2023/07/16 04:20:59;;;;;;;5.07;3.70;;;;;;;;;;5136616;27;20500;-67
2023/07/16 04:23:28;;;;;;;6.40;4.17;;;;;;;;;;5136338;27;20816;-67
2023/07/16 04:25:56;;;;;;;5.47;3.50;;;;;;;;;;5134509;27;20452;-67
2023/07/16 04:28:24;;;;;;;6.83;4.27;;;;;;;;;;5135974;27;20450;-67
2023/07/16 04:30:51;;;;;;;6.30;4.20;;;;;;;;;;5136384;27;20879;-67
2023/07/16 04:33:19;;;;;;;8.30;3.97;;;;;;;;;;5136314;27;20933;-67
2023/07/16 04:35:46;;;;;;;6.43;3.40;;;;;;;;;;5136205;27;20488;-67
2023/07/16 04:38:13;;;;;;;6.77;3.50;;;;;;;;;;5136938;27;20432;-67
2023/07/16 04:40:43;;;;;;;4.73;3.23;;;;;;;;;;5136240;27;20459;-67
2023/07/16 04:43:10;;;;;;;9.90;3.00;;;;;;;;;;5136562;27;20517;-67
2023/07/16 04:45:39;;;;;;;8.17;3.40;;;;;;;;;;5135837;27;20455;-68
2023/07/16 04:48:07;;;;;;;4.30;3.43;;;;;;;;;;5135528;27;20439;-67
2023/07/16 04:50:34;;;;;;;8.90;3.20;;;;;;;;;;5136252;27;20767;-67
2023/07/16 04:53:01;;;;;;;5.90;3.40;;;;;;;;;;5135497;27;20983;-66
2023/07/16 04:55:29;;;;;;;3.87;2.87;;;;;;;;;;5135889;27;20528;-66
2023/07/16 04:57:57;;;;;;;3.70;2.77;;;;;;;;;;5135687;27;20442;-66
2023/07/16 05:00:24;;;;;;;8.13;3.77;;;;;;;;;;5136022;27;20472;-66
2023/07/16 05:02:51;;;;;;;4.83;3.10;;;;;;;;;;5135685;27;20799;-66
2023/07/16 05:05:19;;;;;;;10.23;4.27;;;;;;;;;;5135310;27;20807;-66
2023/07/16 05:07:46;;;;;;;4.57;2.90;;;;;;;;;;5135151;27;20543;-67
2023/07/16 05:10:13;;;;;;;5.87;3.27;;;;;;;;;;5135624;27;20449;-67
2023/07/16 05:12:40;;;;;;;9.53;3.47;;;;;;;;;;5135250;27;20440;-66
2023/07/16 05:15:10;;;;;;;8.33;3.30;;;;;;;;;;5135506;27;20835;-66
2023/07/16 05:17:37;;;;;;;5.63;3.73;;;;;;;;;;5135356;27;20444;-67
2023/07/16 05:20:04;;;;;;;6.70;4.30;;;;;;;;;;5135629;27;20446;-66
2023/07/16 05:22:32;;;;;;;5.70;3.87;;;;;;;;;;5135272;27;20830;-66
2023/07/16 05:24:59;;;;;;;6.20;4.20;;;;;;;;;;5134822;27;20453;-66
2023/07/16 05:27:26;;;;;;;5.03;3.70;;;;;;;;;;5135104;27;20788;-66
2023/07/16 05:29:53;;;;;;;9.77;4.83;;;;;;;;;;5134717;27;20454;-67
2023/07/16 05:32:23;;;;;;;5.47;3.90;;;;;;;;;;5135166;27;20442;-66
2023/07/16 05:34:50;;;;;;;5.40;3.40;;;;;;;;;;5134888;27;20474;-65
2023/07/16 05:37:17;;;;;;;12.07;3.90;;;;;;;;;;5134402;27;20445;-66
2023/07/16 05:39:44;;;;;;;5.13;3.63;;;;;;;;;;5135034;27;20445;-66
2023/07/16 05:42:12;;;;;;;7.73;3.97;;;;;;;;;;5134981;27;20442;-67
2023/07/16 05:44:39;;;;;;;10.60;3.73;;;;;;;;;;5134090;27;20440;-68
2023/07/16 05:47:07;;;;;;;8.10;4.30;;;;;;;;;;5134795;27;20527;-68
2023/07/16 05:49:36;;;;;;;5.43;4.00;;;;;;;;;;5134704;27;20504;-68
2023/07/16 05:52:03;;;;;;;12.60;4.63;;;;;;;;;;5134378;27;20452;-68
2023/07/16 05:54:31;;;;;;;4.97;4.47;;;;;;;;;;5135319;27;20483;-68
2023/07/16 05:57:00;;;;;;;7.50;4.73;;;;;;;;;;5134697;27;20440;-68
2023/07/16 05:59:27;;;;;;;6.40;4.57;;;;;;;;;;5134589;27;20529;-67
2023/07/16 06:01:55;;;;;;;8.43;4.47;;;;;;;;;;5134425;27;20471;-68
2023/07/16 06:04:22;;;;;;;4.73;4.00;;;;;;;;;;5134425;27;20444;-68
2023/07/16 06:06:51;;;;;;;10.33;4.70;;;;;;;;;;5134470;27;20447;-68
2023/07/16 06:09:18;;;;;;;6.33;4.40;;;;;;;;;;5134227;27;20494;-67
2023/07/16 06:11:47;;;;;;;6.93;4.37;;;;;;;;;;5134501;27;20431;-68
2023/07/16 06:14:14;;;;;;;8.90;4.20;;;;;;;;;;5134520;27;20436;-67
2023/07/16 06:16:42;;;;;;;6.50;4.30;;;;;;;;;;5134089;27;20480;-69
2023/07/16 06:19:09;;;;;;;6.67;4.43;;;;;;;;;;5134380;27;20466;-68
2023/07/16 06:21:36;;;;;;;5.70;4.30;;;;;;;;;;5133883;27;20534;-69
2023/07/16 06:24:05;;;;;;;9.60;4.70;;;;;;;;;;5134173;27;20444;-69
2023/07/16 06:26:32;;;;;;;7.10;4.80;;;;;;;;;;5133733;27;20525;-69
2023/07/16 06:28:59;;;;;;;6.07;4.63;;;;;;;;;;5134060;27;20470;-69
2023/07/16 06:31:26;;;;;;;4.83;4.30;;;;;;;;;;5133953;27;20441;-69
2023/07/16 06:33:53;;;;;;;7.90;4.30;;;;;;;;;;5133791;27;20450;-67
2023/07/16 06:36:21;;;;;;;9.30;4.30;;;;;;;;;;5131665;27;20481;-66
2023/07/16 06:38:48;;;;;;;6.97;4.03;;;;;;;;;;5133713;27;20464;-66
2023/07/16 06:41:16;;;;;;;5.77;4.03;;;;;;;;;;5133268;27;20450;-63
2023/07/16 06:43:44;;;;;;;9.93;4.43;;;;;;;;;;5133813;28;20531;-63
2023/07/16 06:46:11;;;;;;;13.13;4.90;;;;;;;;;;5132447;28;20445;-62
2023/07/16 06:48:38;;;;;;;13.33;4.83;;;;;;;;;;5133404;27;20928;-63
2023/07/16 06:51:05;;;;;;;9.07;4.57;;;;;;;;;;5137998;27;20795;-63
2023/07/16 06:53:32;;;;;;;7.20;4.40;;;;;;;;;;5138265;27;20746;-62
2023/07/16 06:55:59;;;;;;;10.73;4.70;;;;;;;;;;5138280;27;20795;-63
2023/07/16 06:58:34;;;;;;;6.47;4.20;;;;;;;;;;5137936;27;20530;-63
2023/07/16 07:01:01;;;;;;;4.43;3.80;;;;;;;;;;5138725;27;20862;-63
2023/07/16 07:03:28;;;;;;;11.07;5.50;;;;;;;;;;5138210;27;20794;-63
2023/07/16 07:05:56;;;;;;;9.53;4.73;;;;;;;;;;5137784;27;20448;-63
2023/07/16 07:08:23;;;;;;;10.30;4.70;;;;;;;;;;5137727;27;20439;-63
2023/07/16 07:10:50;;;;;;;7.57;4.63;;;;;;;;;;5137810;27;20780;-63
2023/07/16 07:13:17;;;;;;;11.10;5.17;;;;;;;;;;5137978;27;20845;-63
2023/07/16 07:15:46;;;;;;;8.80;5.50;;;;;;;;;;5138093;27;20828;-63
2023/07/16 07:18:13;;;;;;;7.80;4.73;;;;;;;;;;5137758;27;20453;-63
2023/07/16 07:20:41;;;;;;;8.40;5.37;;;;;;;;;;5137392;27;20451;-63
2023/07/16 07:23:08;;;;;;;7.80;5.10;;;;;;;;;;5137697;27;20440;-63
2023/07/16 07:25:35;;;;;;;7.30;4.67;;;;;;;;;;5136959;27;20446;-63
2023/07/16 07:28:02;;;;;;;8.50;4.63;;;;;;;;;;5137047;27;20964;-63
2023/07/16 07:30:29;;;;;;;8.37;5.43;;;;;;;;;;5137152;27;20926;-64
2023/07/16 07:32:58;;;;;;;10.30;5.50;;;;;;;;;;5137852;27;20440;-63
2023/07/16 07:35:25;;;;;;;12.13;4.83;;;;;;;;;;5137528;27;20516;-63
2023/07/16 07:37:52;;;;;;;8.70;4.60;;;;;;;;;;5137826;27;20445;-63
2023/07/16 07:40:20;;;;;;;9.70;6.07;;;;;;;;;;5137516;27;20460;-64
2023/07/16 07:42:47;;;;;;;7.80;5.10;;;;;;;;;;5137389;27;20799;-63
2023/07/16 07:45:14;;;;;;;10.07;4.77;;;;;;;;;;5137018;27;20784;-63
2023/07/16 07:47:41;;;;;;;8.93;5.67;;;;;;;;;;5137137;27;20440;-63
2023/07/16 07:50:10;;;;;;;6.80;5.00;;;;;;;;;;5136918;27;20458;-63
2023/07/16 07:52:38;;;;;;;7.80;5.60;;;;;;;;;;5136848;27;20452;-63
2023/07/16 07:55:05;;;;;;;8.17;4.93;;;;;;;;;;5136806;27;20460;-63
2023/07/16 07:57:32;;;;;;;8.73;5.53;;;;;;;;;;5137068;27;20491;-62
2023/07/16 08:00:00;;;;;;;9.67;5.30;;;;;;;;;;5136694;27;20461;-62
2023/07/16 08:02:27;;;;;;;6.70;4.70;;;;;;;;;;5136492;27;20535;-63
2023/07/16 08:04:54;;;;;;;8.93;4.87;;;;;;;;;;5136425;27;20441;-63
2023/07/16 08:07:23;;;;;;;9.13;4.23;;;;;;;;;;5136662;27;20528;-63
2023/07/16 08:09:51;;;;;;;10.87;4.90;;;;;;;;;;5136722;27;20445;-63
2023/07/16 08:12:18;;;;;;;6.30;4.67;;;;;;;;;;5136996;27;20445;-63
2023/07/16 08:14:45;;;;;;;9.40;5.30;;;;;;;;;;5136553;27;20521;-62
2023/07/16 08:17:12;;;;;;;7.80;4.50;;;;;;;;;;5136330;27;20481;-62
2023/07/16 08:19:40;;;;;;;6.10;5.37;;;;;;;;;;5136252;27;20445;-62
2023/07/16 08:22:07;;;;;;;8.73;5.40;;;;;;;;;;5136378;27;20441;-62
2023/07/16 08:24:36;;;;;;;7.00;4.57;;;;;;;;;;5136499;27;20444;-63
2023/07/16 08:27:03;;;;;;;15.47;6.40;;;;;;;;;;5136213;27;20430;-62
2023/07/16 08:29:30;;;;;;;6.83;4.60;;;;;;;;;;5136214;27;20503;-63
2023/07/16 08:31:57;;;;;;;7.30;4.50;;;;;;;;;;5136157;27;20931;-63
2023/07/16 08:34:24;;;;;;;7.67;5.20;;;;;;;;;;5136404;27;20456;-64
2023/07/16 08:36:51;;;;;;;6.40;5.00;;;;;;;;;;5136019;27;21072;-63
2023/07/16 08:39:20;;;;;;;7.37;4.90;;;;;;;;;;5135901;27;20456;-63
2023/07/16 08:41:48;;;;;;;9.03;4.90;;;;;;;;;;5136287;27;20504;-63
2023/07/16 08:44:16;;;;;;;10.13;4.93;;;;;;;;;;5136054;27;20835;-63
2023/07/16 08:46:43;;;;;;;8.90;4.63;;;;;;;;;;5135673;27;20447;-64
2023/07/16 08:49:11;;;;;;;6.20;4.17;;;;;;;;;;5136035;27;20533;-64
2023/07/16 08:51:39;;;;;;;7.50;4.60;;;;;;;;;;5135549;27;20434;-63
2023/07/16 08:54:06;;;;;;;4.90;4.50;;;;;;;;;;5135957;27;20434;-63
2023/07/16 08:56:33;;;;;;;6.50;4.87;;;;;;;;;;5136039;27;20564;-64
2023/07/16 08:59:02;;;;;;;7.57;4.30;;;;;;;;;;5135668;27;20474;-63
2023/07/16 09:01:29;;;;;;;5.57;4.40;;;;;;;;;;5135995;27;20510;-63
2023/07/16 09:03:57;;;;;;;9.70;5.00;;;;;;;;;;5135826;27;20440;-63
2023/07/16 09:06:24;;;;;;;5.23;4.57;;;;;;;;;;5134865;27;20438;-63
2023/07/16 09:08:51;;;;;;;6.67;5.00;;;;;;;;;;5135026;27;20441;-63
2023/07/16 09:11:21;;;;;;;5.27;4.23;;;;;;;;;;5135338;27;20517;-64
2023/07/16 09:13:48;;;;;;;4.87;4.27;;;;;;;;;;5135184;27;20440;-64
2023/07/16 09:16:20;;;;;;;14.20;5.20;;;;;;;;;;5135334;27;20471;-63
2023/07/16 09:18:47;;;;;;;5.67;4.20;;;;;;;;;;5135201;27;20445;-64
2023/07/16 09:21:15;;;;;;;7.83;4.90;;;;;;;;;;5135552;27;20841;-63
2023/07/16 09:23:43;;;;;;;6.60;4.80;;;;;;;;;;5135234;27;20443;-64
2023/07/16 09:26:10;;;;;;;5.07;4.13;;;;;;;;;;5135148;27;20439;-63
2023/07/16 09:28:37;;;;;;;6.63;4.27;;;;;;;;;;5134782;27;20451;-64
2023/07/16 09:31:08;;;;;;;4.60;4.00;;;;;;;;;;5135051;27;20442;-64
2023/07/16 09:33:36;;;;;;;8.00;4.37;;;;;;;;;;5134959;27;20868;-63
2023/07/16 09:36:04;;;;;;;7.57;4.90;;;;;;;;;;5135148;27;20482;-64
2023/07/16 09:38:31;;;;;;;8.00;4.13;;;;;;;;;;5135095;27;20431;-64
2023/07/16 09:40:59;;;;;;;11.87;5.20;;;;;;;;;;5134759;27;20438;-64
2023/07/16 09:43:26;;;;;;;8.10;4.50;;;;;;;;;;5134716;27;20933;-64
2023/07/16 09:45:53;;;;;;;8.37;4.43;;;;;;;;;;5134526;27;20443;-64
2023/07/16 09:48:21;;;;;;;7.70;4.80;;;;;;;;;;5134521;27;20437;-64
2023/07/16 09:50:52;;;;;;;8.70;4.63;;;;;;;;;;5134065;27;20530;-64
2023/07/16 09:53:20;;;;;;;8.43;4.33;;;;;;;;;;5135221;27;20429;-64
2023/07/16 09:55:48;;;;;;;7.90;4.30;;;;;;;;;;5134571;27;20449;-64
2023/07/16 09:58:16;;;;;;;13.27;4.43;;;;;;;;;;5134898;27;20432;-64
2023/07/16 10:00:44;;;;;;;5.63;5.00;;;;;;;;;;5134131;27;20477;-63
2023/07/16 10:03:11;;;;;;;7.40;4.70;;;;;;;;;;5134460;27;20931;-63
2023/07/16 10:05:39;;;;;;;5.43;4.90;;;;;;;;;;5134108;27;20475;-63
2023/07/16 10:08:16;;;;;;;7.93;4.70;;;;;;;;;;5134400;27;20796;-63
2023/07/16 10:10:45;;;;;;;8.63;4.60;;;;;;;;;;5134300;27;20907;-63
2023/07/16 10:13:13;;;;;;;8.10;4.27;;;;;;;;;;5134647;27;20434;-63
2023/07/16 10:15:42;;;;;;;7.40;4.70;;;;;;;;;;5134183;27;20443;-63
2023/07/16 10:18:09;;;;;;;9.03;4.40;;;;;;;;;;5134564;27;20478;-63
2023/07/16 10:20:42;;;;;;;9.17;4.50;;;;;;;;;;5134147;27;20430;-63
2023/07/16 10:23:14;;;;;;;8.57;4.83;;;;;;;;;;5134370;27;20433;-63
2023/07/16 10:25:41;;;;;;;7.33;4.13;;;;;;;;;;5134797;27;20440;-63
2023/07/16 10:28:08;;;;;;;6.93;4.23;;;;;;;;;;5134482;27;21740;-63
2023/07/16 10:30:35;;;;;;;9.57;4.60;;;;;;;;;;5134164;27;20927;-63
2023/07/16 10:33:06;;;;;;;9.00;4.97;;;;;;;;;;5134867;27;20535;-63
2023/07/16 10:35:37;;;;;;;6.87;5.00;;;;;;;;;;5134967;27;20428;-63
2023/07/16 10:38:04;;;;;;;8.43;4.20;;;;;;;;;;5134676;27;20559;-63
2023/07/16 10:40:33;;;;;;;8.23;5.00;;;;;;;;;;5134066;27;20442;-63
2023/07/16 10:43:00;;;;;;;8.23;4.67;;;;;;;;;;5134625;27;20769;-64
2023/07/16 10:45:27;;;;;;;8.77;4.80;;;;;;;;;;5134653;28;20431;-64
2023/07/16 10:47:55;;;;;;;5.87;4.10;;;;;;;;;;5134363;28;20439;-64
2023/07/16 10:50:22;;;;;;;4.43;3.87;;;;;;;;;;5134663;28;20873;-64
2023/07/16 10:52:52;;;;;;;6.47;4.37;;;;;;;;;;5134336;28;20444;-63
2023/07/16 10:55:20;;;;;;;5.97;4.50;;;;;;;;;;5134014;28;20444;-64
2023/07/16 10:57:49;;;;;;;6.53;4.70;;;;;;;;;;5133866;28;20474;-64
2023/07/16 11:00:17;;;;;;;8.47;3.73;;;;;;;;;;5134207;28;20505;-64
2023/07/16 11:02:46;;;;;;;8.53;5.33;;;;;;;;;;5134021;28;20447;-64
2023/07/16 11:05:13;;;;;;;7.03;4.90;;;;;;;;;;5134423;28;20538;-64
2023/07/16 11:07:44;;;;;;;5.97;3.90;;;;;;;;;;5133987;28;20451;-63
2023/07/16 11:10:11;;;;;;;9.23;4.43;;;;;;;;;;5134473;28;20438;-63
2023/07/16 11:12:38;;;;;;;6.33;4.67;;;;;;;;;;5134107;28;20861;-63
2023/07/16 11:15:08;;;;;;;4.90;4.20;;;;;;;;;;5134104;28;20517;-63
2023/07/16 11:17:35;;;;;;;8.80;4.50;;;;;;;;;;5133548;28;20479;-63
2023/07/16 11:20:04;;;;;;;5.27;4.20;;;;;;;;;;5134406;28;20442;-64
2023/07/16 11:22:31;;;;;;;8.00;4.87;;;;;;;;;;5133528;28;20445;-63
2023/07/16 11:24:58;;;;;;;7.53;4.40;;;;;;;;;;5133603;28;20451;-63
2023/07/16 11:27:26;;;;;;;11.53;5.40;;;;;;;;;;5134037;28;20456;-63
2023/07/16 11:29:54;;;;;;;4.43;4.03;;;;;;;;;;5133459;28;20459;-63
2023/07/16 11:32:29;;;;;;;5.20;3.90;;;;;;;;;;5133718;28;20932;-63
2023/07/16 11:34:57;;;;;;;7.73;4.50;;;;;;;;;;5134137;27;20440;-63
2023/07/16 11:37:26;;;;;;;7.23;4.00;;;;;;;;;;5137216;27;20480;-63
2023/07/16 11:39:56;;;;;;;9.90;4.70;;;;;;;;;;5138021;27;20475;-63
2023/07/16 11:42:29;;;;;;;6.27;4.60;;;;;;;;;;5137683;27;20438;-63
2023/07/16 11:44:57;;;;;;;6.10;4.20;;;;;;;;;;5137236;27;20424;-63
2023/07/16 11:47:24;;;;;;;6.73;4.37;;;;;;;;;;5137326;27;20447;-64
2023/07/16 11:49:53;;;;;;;7.13;5.00;;;;;;;;;;5137435;27;20444;-63
2023/07/16 11:52:21;;;;;;;5.13;4.17;;;;;;;;;;5136015;27;20798;-63
2023/07/16 11:54:48;;;;;;;5.50;4.10;;;;;;;;;;5136522;27;20489;-63
2023/07/16 11:57:16;;;;;;;6.10;4.40;;;;;;;;;;5136683;27;20532;-63
2023/07/16 11:59:43;;;;;;;6.27;4.70;;;;;;;;;;5136475;27;20578;-63
2023/07/16 12:02:10;;;;;;;8.67;4.13;;;;;;;;;;5136916;27;20463;-63
2023/07/16 12:04:38;;;;;;;4.77;4.20;;;;;;;;;;5137159;27;20465;-63
2023/07/16 12:07:06;;;;;;;9.20;3.90;;;;;;;;;;5136803;27;20447;-64
2023/07/16 12:09:33;;;;;;;7.90;4.50;;;;;;;;;;5136537;27;20452;-64
2023/07/16 12:12:01;;;;;;;4.87;4.30;;;;;;;;;;5136621;27;20934;-63
2023/07/16 12:14:28;;;;;;;7.33;4.80;;;;;;;;;;5136584;27;20445;-63
2023/07/16 12:16:56;;;;;;;12.83;4.70;;;;;;;;;;5136361;27;20477;-63
2023/07/16 12:19:23;;;;;;;7.73;4.90;;;;;;;;;;5136179;27;20461;-64
2023/07/16 12:21:50;;;;;;;6.83;3.97;;;;;;;;;;5136426;27;20448;-65
2023/07/16 12:24:19;;;;;;;5.93;5.17;;;;;;;;;;5136958;27;20447;-63
2023/07/16 12:26:46;;;;;;;5.47;3.80;;;;;;;;;;5136522;27;20452;-64
2023/07/16 12:29:14;;;;;;;6.97;4.40;;;;;;;;;;5136700;27;20457;-63
2023/07/16 12:31:41;;;;;;;11.43;4.63;;;;;;;;;;5136134;27;20443;-63
2023/07/16 12:34:08;;;;;;;5.10;3.90;;;;;;;;;;5136637;27;20452;-64
2023/07/16 12:36:35;;;;;;;6.67;4.37;;;;;;;;;;5136902;27;20473;-63
2023/07/16 12:39:02;;;;;;;5.50;4.20;;;;;;;;;;5135907;27;20488;-64
2023/07/16 12:41:31;;;;;;;7.07;4.47;;;;;;;;;;5136124;27;20444;-64
2023/07/16 12:43:58;;;;;;;4.63;4.23;;;;;;;;;;5136303;27;20447;-64
2023/07/16 12:46:25;;;;;;;8.20;4.13;;;;;;;;;;5135638;27;20445;-63
2023/07/16 12:48:53;;;;;;;7.43;4.43;;;;;;;;;;5135936;27;20499;-63
2023/07/16 12:51:20;;;;;;;8.17;4.27;;;;;;;;;;5135996;27;20447;-64
2023/07/16 12:53:47;;;;;;;4.07;3.60;;;;;;;;;;5135422;27;20443;-64
2023/07/16 12:56:14;;;;;;;4.70;4.17;;;;;;;;;;5136046;27;20436;-63
2023/07/16 12:58:43;;;;;;;4.80;4.40;;;;;;;;;;5135291;27;20496;-63
2023/07/16 13:01:10;;;;;;;5.43;4.63;;;;;;;;;;5136203;27;20439;-64
2023/07/16 13:03:37;;;;;;;8.80;4.77;;;;;;;;;;5135980;27;20441;-62
2023/07/16 13:06:04;;;;;;;6.30;4.30;;;;;;;;;;5136656;27;20450;-62
2023/07/16 13:08:32;;;;;;;5.43;4.40;;;;;;;;;;5135657;27;20443;-63
2023/07/16 13:11:00;;;;;;;7.60;3.90;;;;;;;;;;5135550;27;20473;-64
2023/07/16 13:13:28;;;;;;;7.53;4.30;;;;;;;;;;5135476;27;20445;-63
2023/07/16 13:15:57;;;;;;;7.50;4.47;;;;;;;;;;5135672;27;20448;-63
2023/07/16 13:18:24;;;;;;;9.37;4.70;;;;;;;;;;5135587;27;20473;-63
2023/07/16 13:20:51;;;;;;;6.07;4.33;;;;;;;;;;5135121;27;20480;-64
2023/07/16 13:23:18;;;;;;;7.37;3.80;;;;;;;;;;5135318;27;20442;-64
2023/07/16 13:25:46;;;;;;;6.00;4.50;;;;;;;;;;5135100;27;20445;-64
2023/07/16 13:28:13;;;;;;;8.77;5.20;;;;;;;;;;5135210;27;20453;-64
2023/07/16 13:30:40;;;;;;;6.10;5.00;;;;;;;;;;5135387;27;20498;-64
2023/07/16 13:33:09;;;;;;;6.40;3.90;;;;;;;;;;5134939;27;20922;-64
2023/07/16 13:35:36;;;;;;;8.27;4.50;;;;;;;;;;5134838;27;20521;-63
2023/07/16 13:38:03;;;;;;;10.57;5.80;;;;;;;;;;5134830;27;20488;-63
2023/07/16 13:40:30;;;;;;;5.43;4.40;;;;;;;;;;5134499;27;20502;-63
2023/07/16 13:42:58;;;;;;;5.27;3.93;;;;;;;;;;5135053;27;20490;-64
2023/07/16 13:45:25;;;;;;;7.67;4.50;;;;;;;;;;5135066;27;20452;-63
2023/07/16 13:47:53;;;;;;;6.50;4.60;;;;;;;;;;5134768;27;20445;-64
2023/07/16 13:50:22;;;;;;;9.30;3.70;;;;;;;;;;5134843;27;20445;-62
2023/07/16 13:52:50;;;;;;;6.37;4.30;;;;;;;;;;5134801;27;20441;-62
2023/07/16 13:55:17;;;;;;;6.60;4.20;;;;;;;;;;5134712;27;20444;-63
2023/07/16 13:57:45;;;;;;;8.10;4.77;;;;;;;;;;5134411;27;20884;-63
2023/07/16 14:00:15;;;;;;;6.77;4.03;;;;;;;;;;5133669;27;20536;-63
2023/07/16 14:02:42;;;;;;;8.03;4.47;;;;;;;;;;5134371;27;20425;-63
2023/07/16 14:05:10;;;;;;;5.80;4.20;;;;;;;;;;5134650;27;20894;-63
2023/07/16 14:07:38;;;;;;;7.30;4.70;;;;;;;;;;5134598;27;20497;-63
2023/07/16 14:10:06;;;;;;;6.07;4.00;;;;;;;;;;5134562;27;20419;-63
2023/07/16 14:12:34;;;;;;;4.37;3.97;;;;;;;;;;5134596;27;20455;-63
2023/07/16 14:15:01;;;;;;;5.20;4.00;;;;;;;;;;5134836;27;20447;-63
2023/07/16 14:17:28;;;;;;;5.63;4.57;;;;;;;;;;5134687;27;20448;-63
2023/07/16 14:19:55;;;;;;;4.07;3.67;;;;;;;;;;5133875;27;20437;-64
2023/07/16 14:22:27;;;;;;;3.97;3.47;;;;;;;;;;5133728;27;20442;-64
2023/07/16 14:24:56;;;;;;;5.97;4.03;;;;;;;;;;5133458;27;20493;-63
2023/07/16 14:27:23;;;;;;;4.17;3.43;;;;;;;;;;5133993;27;20422;-68
2023/07/16 14:29:50;;;;;;;6.77;3.97;;;;;;;;;;5134293;27;20418;-63
2023/07/16 14:32:17;;;;;;;5.10;3.40;;;;;;;;;;5134262;27;20443;-63
2023/07/16 14:34:45;;;;;;;6.93;3.60;;;;;;;;;;5133906;27;20436;-64
2023/07/16 14:37:12;;;;;;;3.63;2.93;;;;;;;;;;5133846;27;20439;-63
2023/07/16 14:39:39;;;;;;;6.00;3.20;;;;;;;;;;5133074;27;20478;-63
2023/07/16 14:42:08;;;;;;;6.33;4.10;;;;;;;;;;5133818;27;20444;-63
2023/07/16 14:44:36;;;;;;;3.87;3.43;;;;;;;;;;5134076;27;20798;-63
2023/07/16 14:47:04;;;;;;;7.63;3.40;;;;;;;;;;5134193;28;20440;-63